createdAt,value
2022-12-03T00:01:33.626Z,7.80
2022-12-03T00:04:19.389Z,7.72
2022-12-03T00:07:05.005Z,7.75
2022-12-03T00:09:50.755Z,7.72
2022-12-03T00:12:37.843Z,7.73
2022-12-03T00:15:24.604Z,7.67
2022-12-03T00:18:10.850Z,7.69
2022-12-03T00:20:56.922Z,7.66
2022-12-03T00:23:42.683Z,7.67
2022-12-03T00:26:28.653Z,7.67
2022-12-03T00:29:14.500Z,7.64
2022-12-03T00:32:00.201Z,7.58
2022-12-03T00:34:45.945Z,7.61
2022-12-03T00:37:31.929Z,7.63
2022-12-03T00:40:17.791Z,7.61
2022-12-03T00:43:03.865Z,7.60
2022-12-03T00:45:49.576Z,7.55
2022-12-03T00:48:35.523Z,7.61
2022-12-03T00:51:21.598Z,7.60
2022-12-03T00:54:07.117Z,7.57
2022-12-03T00:56:53.450Z,7.58
2022-12-03T00:59:39.333Z,7.60
2022-12-03T01:02:25.115Z,7.61
2022-12-03T01:05:11.203Z,7.61
2022-12-03T01:07:56.947Z,7.58
2022-12-03T01:10:43.048Z,7.60
2022-12-03T01:13:28.769Z,7.58
2022-12-03T01:16:14.411Z,7.63
2022-12-03T01:19:00.415Z,7.60
2022-12-03T01:21:48.860Z,7.66
2022-12-03T01:24:34.633Z,7.67
2022-12-03T01:27:20.700Z,7.65
2022-12-03T01:30:09.823Z,7.68
2022-12-03T01:32:55.771Z,7.66
2022-12-03T01:35:41.736Z,7.70
2022-12-03T01:38:27.347Z,7.62
2022-12-03T01:41:13.214Z,7.64
2022-12-03T01:43:59.625Z,7.66
2022-12-03T01:46:46.255Z,7.63
2022-12-03T01:50:09.580Z,7.62
2022-12-03T01:52:56.125Z,7.63
2022-12-03T01:55:48.267Z,7.63
2022-12-03T01:58:34.930Z,7.63
2022-12-03T02:01:20.935Z,7.57
2022-12-03T02:04:08.852Z,7.64
2022-12-03T02:06:54.813Z,7.66
2022-12-03T02:09:40.829Z,7.68
2022-12-03T02:12:38.948Z,7.65
2022-12-03T02:15:25.286Z,7.67
2022-12-03T02:18:11.140Z,7.66
2022-12-03T02:21:17.732Z,7.63
2022-12-03T02:24:20.040Z,7.63
2022-12-03T02:27:06.509Z,7.62
2022-12-03T02:30:00.264Z,7.57
2022-12-03T02:32:46.759Z,7.61
2022-12-03T02:35:35.330Z,7.60
2022-12-03T02:38:26.756Z,7.59
2022-12-03T02:41:38.795Z,7.59
2022-12-03T02:44:24.620Z,7.62
2022-12-03T02:47:10.563Z,7.60
2022-12-03T02:49:58.096Z,7.59
2022-12-03T02:52:45.302Z,7.59
2022-12-03T02:55:36.823Z,7.56
2022-12-03T02:58:24.777Z,7.55
2022-12-03T03:01:10.999Z,7.55
2022-12-03T03:03:58.078Z,7.49
2022-12-03T03:06:44.039Z,7.53
2022-12-03T03:09:30.157Z,7.55
2022-12-03T03:12:16.563Z,7.52
2022-12-03T03:15:02.520Z,7.52
2022-12-03T03:17:48.304Z,7.56
2022-12-03T03:20:34.593Z,7.55
2022-12-03T03:23:23.332Z,7.52
2022-12-03T03:26:10.930Z,7.59
2022-12-03T03:29:00.227Z,7.60
2022-12-03T03:31:47.583Z,7.60
2022-12-03T03:34:33.353Z,7.60
2022-12-03T03:37:24.426Z,7.61
2022-12-03T03:40:11.350Z,7.62
2022-12-03T03:43:02.507Z,7.61
2022-12-03T03:45:50.002Z,7.59
2022-12-03T03:48:36.539Z,7.61
2022-12-03T03:51:23.138Z,7.62
2022-12-03T03:54:09.439Z,7.63
2022-12-03T03:56:55.621Z,7.64
2022-12-03T03:59:42.046Z,7.64
2022-12-03T04:02:28.477Z,7.66
2022-12-03T04:05:22.030Z,7.65
2022-12-03T04:08:08.106Z,7.62
2022-12-03T04:11:12.557Z,7.59
2022-12-03T04:13:58.352Z,7.57
2022-12-03T04:16:44.074Z,7.62
2022-12-03T04:19:32.413Z,7.62
2022-12-03T04:22:38.918Z,7.61
2022-12-03T04:25:45.082Z,7.62
2022-12-03T04:28:50.275Z,7.59
2022-12-03T04:31:54.921Z,7.61
2022-12-03T04:34:59.635Z,7.62
2022-12-03T04:38:02.176Z,7.63
2022-12-03T04:41:06.398Z,7.61
2022-12-03T04:44:11.626Z,7.62
2022-12-03T04:46:57.601Z,7.61
2022-12-03T04:49:45.996Z,7.56
2022-12-03T04:52:31.756Z,7.62
2022-12-03T04:55:17.765Z,7.59
2022-12-03T04:58:03.786Z,7.59
2022-12-03T05:00:49.931Z,7.60
2022-12-03T05:03:35.669Z,7.61
2022-12-03T05:06:21.788Z,7.60
2022-12-03T05:09:07.516Z,7.65
2022-12-03T05:11:53.358Z,7.61
2022-12-03T05:14:39.256Z,7.65
2022-12-03T05:17:24.971Z,7.62
2022-12-03T05:20:30.677Z,7.68
2022-12-03T05:23:16.709Z,7.65
2022-12-03T05:26:02.529Z,7.62
2022-12-03T05:28:48.710Z,7.65
2022-12-03T05:31:34.646Z,7.63
2022-12-03T05:34:20.475Z,7.65
2022-12-03T05:37:07.554Z,7.64
2022-12-03T05:39:53.198Z,7.69
2022-12-03T05:43:01.358Z,7.68
2022-12-03T05:45:47.262Z,7.67
2022-12-03T05:48:33.051Z,7.70
2022-12-03T05:51:18.722Z,7.74
2022-12-03T05:54:04.452Z,7.77
2022-12-03T05:56:50.463Z,7.77
2022-12-03T05:59:36.134Z,7.75
2022-12-03T06:02:21.998Z,7.72
2022-12-03T06:05:09.354Z,7.65
2022-12-03T06:07:55.561Z,7.74
2022-12-03T06:10:41.672Z,7.72
2022-12-03T06:13:27.324Z,7.76
2022-12-03T06:16:12.992Z,7.79
2022-12-03T06:18:58.737Z,7.80
2022-12-03T06:21:44.432Z,7.81
2022-12-03T06:24:30.159Z,7.81
2022-12-03T06:27:16.226Z,7.84
2022-12-03T06:30:03.020Z,7.83
2022-12-03T06:32:59.864Z,7.81
2022-12-03T06:35:45.884Z,7.78
2022-12-03T06:38:31.485Z,7.87
2022-12-03T06:41:19.959Z,7.83
2022-12-03T06:44:05.899Z,7.89
2022-12-03T06:46:52.133Z,7.89
2022-12-03T06:49:38.419Z,7.91
2022-12-03T06:52:24.784Z,7.93
2022-12-03T06:55:10.646Z,7.96
2022-12-03T06:57:56.502Z,7.98
2022-12-03T07:00:42.487Z,8.01
2022-12-03T07:03:28.299Z,8.04
2022-12-03T07:06:14.500Z,8.04
2022-12-03T07:09:00.314Z,8.07
2022-12-03T07:11:46.962Z,8.04
2022-12-03T07:14:32.880Z,8.08
2022-12-03T07:17:18.825Z,8.07
2022-12-03T07:20:05.147Z,8.10
2022-12-03T07:22:52.096Z,8.12
2022-12-03T07:25:38.013Z,8.11
2022-12-03T07:28:24.196Z,8.11
2022-12-03T07:31:11.458Z,8.10
2022-12-03T07:33:57.744Z,8.15
2022-12-03T07:36:43.846Z,8.13
2022-12-03T07:39:30.383Z,8.18
2022-12-03T07:42:16.550Z,8.18
2022-12-03T07:45:02.363Z,8.22
2022-12-03T07:47:48.708Z,8.27
2022-12-03T07:50:34.913Z,8.27
2022-12-03T07:53:20.639Z,8.34
2022-12-03T07:56:07.444Z,8.38
2022-12-03T07:58:53.509Z,8.33
2022-12-03T08:01:40.244Z,8.39
2022-12-03T08:04:26.409Z,8.43
2022-12-03T08:07:12.783Z,8.43
2022-12-03T08:09:59.066Z,8.42
2022-12-03T08:12:44.956Z,8.44
2022-12-03T08:15:36.930Z,8.37
2022-12-03T08:18:27.240Z,8.44
2022-12-03T08:21:15.748Z,8.38
2022-12-03T08:24:18.897Z,8.43
2022-12-03T08:27:19.692Z,8.43
2022-12-03T08:30:06.402Z,8.44
2022-12-03T08:32:58.234Z,8.46
2022-12-03T08:35:48.573Z,8.46
2022-12-03T08:38:34.630Z,8.48
2022-12-03T08:41:39.934Z,8.45
2022-12-03T08:44:27.165Z,8.47
2022-12-03T08:47:17.217Z,8.46
2022-12-03T08:50:27.238Z,8.46
2022-12-03T08:53:37.931Z,8.45
2022-12-03T08:56:24.865Z,8.47
2022-12-03T08:59:29.965Z,8.46
2022-12-03T13:50:41.333Z,9.94
2022-12-03T13:53:33.285Z,10.05
2022-12-03T13:56:28.223Z,10.09
2022-12-03T13:59:14.973Z,10.11
2022-12-03T14:02:01.320Z,10.12
2022-12-03T14:04:47.395Z,10.14
2022-12-03T14:07:33.395Z,10.14
2022-12-03T14:10:19.613Z,10.15
2022-12-03T14:13:05.430Z,10.13
2022-12-03T14:15:51.712Z,10.19
2022-12-03T14:18:37.765Z,10.20
2022-12-03T14:21:24.209Z,10.23
2022-12-03T14:24:10.073Z,10.21
2022-12-03T14:26:56.097Z,10.23
2022-12-03T14:29:41.926Z,10.24
2022-12-03T14:32:28.484Z,10.22
2022-12-03T14:35:14.957Z,10.17
2022-12-03T14:38:01.200Z,10.18
2022-12-03T14:40:47.063Z,10.15
2022-12-03T14:43:32.774Z,10.10
2022-12-03T14:46:18.596Z,10.03
2022-12-03T14:49:04.657Z,9.95
2022-12-03T14:51:50.932Z,9.92
2022-12-03T14:54:39.283Z,9.86
2022-12-03T14:57:25.469Z,9.80
2022-12-03T15:00:12.151Z,9.77
2022-12-03T15:02:58.239Z,9.72
2022-12-03T15:05:44.047Z,9.70
2022-12-03T15:08:29.910Z,9.63
2022-12-03T15:11:15.759Z,9.63
2022-12-03T15:14:01.941Z,9.61
2022-12-03T15:16:47.746Z,9.54
2022-12-03T15:19:33.764Z,9.49
2022-12-03T15:22:19.904Z,9.47
2022-12-03T15:25:07.640Z,9.38
2022-12-03T15:27:53.253Z,9.42
2022-12-03T15:30:38.943Z,9.42
2022-12-03T15:33:25.686Z,9.38
2022-12-03T15:36:12.235Z,9.31
2022-12-03T15:38:58.183Z,9.33
2022-12-03T15:41:43.923Z,9.30
2022-12-03T15:44:29.727Z,9.34
2022-12-03T15:47:15.882Z,9.28
2022-12-03T15:50:01.759Z,9.27
2022-12-03T15:52:48.138Z,9.30
2022-12-03T15:55:34.371Z,9.28
2022-12-03T15:58:20.465Z,9.27
2022-12-03T16:01:06.898Z,9.28
2022-12-03T16:03:52.808Z,9.24
2022-12-03T16:06:38.812Z,9.26
2022-12-03T16:09:27.443Z,9.28
2022-12-03T16:12:14.774Z,9.28
2022-12-03T16:15:01.266Z,9.29
2022-12-03T16:17:47.485Z,9.28
2022-12-03T16:20:34.436Z,9.28
2022-12-03T16:23:20.927Z,9.27
2022-12-03T16:26:07.934Z,9.24
2022-12-03T16:28:55.325Z,9.23
2022-12-03T16:31:43.276Z,9.25
2022-12-03T16:34:30.905Z,9.24
2022-12-03T16:37:19.195Z,9.21
2022-12-03T16:40:12.085Z,9.19
2022-12-03T16:43:01.265Z,9.17
2022-12-03T16:46:20.867Z,9.16
2022-12-03T16:49:10.123Z,9.10
2022-12-03T16:51:57.829Z,9.10
2022-12-03T16:54:45.011Z,9.02
2022-12-03T16:57:33.934Z,8.97
2022-12-03T17:00:23.129Z,9.03
2022-12-03T17:03:10.731Z,9.03
2022-12-03T17:05:58.006Z,8.98
2022-12-03T17:08:49.432Z,8.97
2022-12-03T17:11:38.434Z,8.97
2022-12-03T17:14:31.437Z,8.97
2022-12-03T17:17:21.956Z,8.97
2022-12-03T17:20:13.592Z,8.98
2022-12-03T17:23:02.175Z,8.97
2022-12-03T17:25:50.345Z,8.95
2022-12-03T17:28:37.584Z,8.97
2022-12-03T17:31:25.018Z,8.95
2022-12-03T17:34:12.423Z,8.97
2022-12-03T17:37:00.954Z,8.97
2022-12-03T17:39:48.193Z,8.98
2022-12-03T17:42:35.176Z,9.04
2022-12-03T17:45:21.925Z,8.98
2022-12-03T17:48:09.316Z,9.04
2022-12-03T17:50:59.320Z,9.01
2022-12-03T17:53:48.160Z,9.04
2022-12-03T17:56:36.711Z,9.03
2022-12-03T17:59:24.076Z,8.98
2022-12-03T18:02:11.371Z,9.00
2022-12-03T18:04:59.690Z,9.02
2022-12-03T18:07:46.937Z,9.00
2022-12-03T18:10:34.476Z,9.10
2022-12-03T18:13:21.782Z,9.14
2022-12-03T18:16:09.323Z,9.14
2022-12-03T18:18:59.905Z,9.18
2022-12-03T18:21:51.334Z,9.20
2022-12-03T18:24:39.979Z,9.20
2022-12-03T18:27:26.315Z,9.17
2022-12-03T18:30:12.550Z,9.15
2022-12-03T18:32:58.333Z,9.14
2022-12-03T18:35:44.381Z,9.11
2022-12-03T18:38:30.874Z,9.07
2022-12-03T18:41:20.584Z,9.08
2022-12-03T18:44:07.142Z,9.05
2022-12-03T18:46:54.437Z,9.06
2022-12-03T18:49:41.223Z,9.05
2022-12-03T18:52:27.386Z,9.07
2022-12-03T18:55:20.095Z,9.09
2022-12-03T18:58:06.314Z,9.12
2022-12-03T19:00:55.478Z,9.11
2022-12-03T19:03:41.224Z,9.15
2022-12-03T19:06:30.584Z,9.18
2022-12-03T19:09:17.735Z,9.19
2022-12-03T19:12:04.264Z,9.18
2022-12-03T19:14:51.163Z,9.13
2022-12-03T19:17:39.674Z,9.19
2022-12-03T19:20:25.555Z,9.16
2022-12-03T19:23:11.364Z,9.15
2022-12-03T19:25:58.944Z,9.19
2022-12-03T19:28:44.944Z,9.14
2022-12-03T19:31:33.420Z,9.15
2022-12-03T19:34:20.157Z,9.17
2022-12-03T19:37:05.979Z,9.15
2022-12-03T19:39:55.149Z,9.17
2022-12-03T19:42:44.464Z,9.16
2022-12-03T19:45:30.795Z,9.18
2022-12-03T19:48:17.038Z,9.18
2022-12-03T19:51:26.625Z,9.21
2022-12-03T19:54:14.253Z,9.16
2022-12-03T19:57:00.491Z,9.24
2022-12-03T19:59:46.509Z,9.24
2022-12-03T20:02:32.520Z,9.24
2022-12-03T20:05:18.742Z,9.21
2022-12-03T20:08:05.542Z,9.20
2022-12-03T20:10:51.262Z,9.17
2022-12-03T20:13:37.095Z,9.16
2022-12-03T20:16:24.014Z,9.13
2022-12-03T20:19:11.866Z,9.13
2022-12-03T20:22:02.359Z,9.14
2022-12-03T20:24:48.708Z,9.09
2022-12-03T20:27:34.957Z,9.07
2022-12-03T20:30:20.875Z,9.03
2022-12-03T20:33:10.125Z,9.06
2022-12-03T20:35:56.785Z,9.09
2022-12-03T20:38:43.123Z,9.07
2022-12-03T20:41:29.159Z,9.06
2022-12-03T20:44:15.276Z,9.06
2022-12-03T20:47:01.389Z,9.05
2022-12-03T20:49:47.244Z,8.97
2022-12-03T20:52:33.405Z,8.99
2022-12-03T20:55:19.108Z,8.96
2022-12-03T20:58:04.973Z,8.95
2022-12-03T21:00:51.081Z,8.91
2022-12-03T21:03:37.322Z,8.90
2022-12-03T21:06:25.101Z,8.88
2022-12-03T21:09:12.193Z,8.90
2022-12-03T21:11:58.700Z,8.87
2022-12-03T21:14:44.445Z,8.89
2022-12-03T21:17:30.414Z,8.86
2022-12-03T21:20:20.812Z,8.88
2022-12-03T21:23:07.387Z,8.88
2022-12-03T21:25:54.673Z,8.90
2022-12-03T21:28:43.485Z,8.92
2022-12-03T21:31:31.664Z,8.88
2022-12-03T21:34:17.375Z,8.90
2022-12-03T21:37:03.348Z,8.93
2022-12-03T21:39:49.947Z,8.93
2022-12-03T21:42:37.346Z,8.93
2022-12-03T21:45:25.100Z,8.92
2022-12-03T21:48:11.529Z,8.96
2022-12-03T21:51:00.145Z,8.98
2022-12-03T21:53:46.566Z,8.97
2022-12-03T21:56:33.247Z,9.00
2022-12-03T21:59:19.102Z,9.00
2022-12-03T22:02:04.947Z,8.98
2022-12-03T22:04:51.197Z,9.00
2022-12-03T22:07:38.382Z,9.05
2022-12-03T22:10:24.560Z,9.06
2022-12-03T22:13:10.434Z,9.07
2022-12-03T22:15:56.528Z,9.04
2022-12-03T22:18:42.442Z,9.02
2022-12-03T22:21:28.689Z,9.07
2022-12-03T22:24:14.725Z,9.03
2022-12-03T22:27:00.435Z,9.01
2022-12-03T22:29:46.092Z,8.99
2022-12-03T22:32:31.880Z,9.01
2022-12-03T22:35:17.617Z,9.03
2022-12-03T22:38:03.333Z,8.98
2022-12-03T22:40:57.166Z,8.96
2022-12-03T22:43:44.022Z,8.96
2022-12-03T22:46:30.352Z,8.92
2022-12-03T22:49:16.534Z,8.83
2022-12-03T22:52:02.667Z,8.84
2022-12-03T22:54:49.064Z,8.86
2022-12-03T22:57:34.938Z,8.85
2022-12-03T23:00:29.828Z,8.82
2022-12-03T23:03:20.396Z,8.77
2022-12-03T23:06:11.094Z,8.76
2022-12-03T23:08:57.963Z,8.79
2022-12-03T23:11:45.385Z,8.80
2022-12-03T23:14:31.484Z,8.77
2022-12-03T23:17:17.289Z,8.81
2022-12-03T23:20:04.083Z,8.80
2022-12-03T23:22:50.271Z,8.81
2022-12-03T23:25:37.446Z,8.81
2022-12-03T23:28:23.695Z,8.77
2022-12-03T23:31:32.307Z,8.77
2022-12-03T23:34:18.507Z,8.79
2022-12-03T23:37:04.674Z,8.79
2022-12-03T23:39:50.694Z,8.80
2022-12-03T23:42:36.768Z,8.79
2022-12-03T23:45:22.602Z,8.80
2022-12-03T23:48:08.861Z,8.81
2022-12-03T23:50:54.955Z,8.85
2022-12-03T23:53:41.200Z,8.83
2022-12-03T23:56:30.677Z,8.87
2022-12-03T23:59:16.337Z,8.87
